Al Taji, Iraq

11:00 PM AST on October 21, 2014 (GMT +0300)
Baghdad | Change Station
CLOSE
Current Station
Airport
Location: Baghdad,
Elevation: 112 ft
Nearby Weather Stations

Elev 112 ft 33.25 °N, 44.23 °E | Updated 5 minutes ago

Clear
Clear
63 °F
Feels Like 63 °F
N
1
Wind Variable Wind from SSW

Today
High -- | Low -- °F
--% Chance of Precip.
Yesterday
High -- | Low -- °F
Precip. -- in
6:12 AM 5:22 PM
Waning Crescent, 4% visible
Pressure 30.06 in
Visibility 6.2 miles
Clouds Clear
Dew Point 46 °F
Humidity 55%
Rainfall 0.00 in
Snow Depth Not available.
UV 0 out of 12
Pollen Not available.
Air Quality Not available.
Flu Activity Not available.
METAR KQTZ 211955Z 20001KT 9999 CLR 17/08 A3007 RMK SLP180 WND DATA ESTMD ALSTG/SLP ESTMD

More Conditions Fewer Conditions

Pressure 30.06 in
Visibility 6.2 miles
Clouds Clear
Dew Point 46 °F
Humidity 55%
Rainfall 0.00 in
Snow Depth Not available.
UV 0 out of 12
Pollen Not available.
Air Quality Not available.
Flu Activity Not available.
METAR KQTZ 211955Z 20001KT 9999 CLR 17/08 A3007 RMK SLP180 WND DATA ESTMD ALSTG/SLP ESTMD

More Conditions Fewer Conditions

10-Day Weather Forecast

Almanac

Astronomy

Oct. 21, 2014 Rise Set
Actual Time 6:12 AM AST 5:22 PM AST
Civil Twilight 5:46 AM AST 5:47 PM AST
Nautical Twilight 5:17 AM AST 6:16 PM AST
Astronomical Twilight 4:49 AM AST 6:45 PM AST
Moon 3:42 AM AST 3:58 PM AST
Length of Visible Light 12h 00m
Length of Day
11h 10m
Tomorrow will be 1m 57s shorter.
Waning Crescent, 4% of the Moon is Illuminated
Today
Waning Crescent
Oct 23
New
Oct 30
First Quarter
Nov 6
Full
Nov 14
Last Quarter

Today's Extremes

Country Highs Country Lows

Community

WunderPhotos

Upload Photos

1,763,757 photos uploaded!

Nearby

Snow Depth

Not available.

Earthquake Activity

City Distance Mag. Time & Date
No recent earthquake activity has been reported nearby.
Minimum magnitude displayed is 2.5.

Coastal Water Temperatures

Place Temperature
No Stations Reporting

Nearby Weather Stations